sensor_id;sensor_type;location;lat;lon;timestamp;temperature;humidity
57132;DHT22;43005;52.922;5.742;2022-08-21T00:00:29;17.50;99.90
57132;DHT22;43005;52.922;5.742;2022-08-21T00:02:59;17.40;99.90
57132;DHT22;43005;52.922;5.742;2022-08-21T00:05:26;17.40;99.90
57132;DHT22;43005;52.922;5.742;2022-08-21T00:07:54;17.30;99.90
57132;DHT22;43005;52.922;5.742;2022-08-21T00:10:21;17.30;99.90
57132;DHT22;43005;52.922;5.742;2022-08-21T00:12:48;17.30;99.90
57132;DHT22;43005;52.922;5.742;2022-08-21T00:15:17;17.20;99.90
57132;DHT22;43005;52.922;5.742;2022-08-21T00:17:45;17.20;99.90
57132;DHT22;43005;52.922;5.742;2022-08-21T00:20:13;17.20;99.90
57132;DHT22;43005;52.922;5.742;2022-08-21T00:22:41;17.20;99.90
57132;DHT22;43005;52.922;5.742;2022-08-21T00:25:08;17.20;99.90
57132;DHT22;43005;52.922;5.742;2022-08-21T00:27:35;17.10;99.90
57132;DHT22;43005;52.922;5.742;2022-08-21T00:30:03;17.10;99.90
57132;DHT22;43005;52.922;5.742;2022-08-21T00:32:30;17.10;99.90
57132;DHT22;43005;52.922;5.742;2022-08-21T00:34:57;17.10;99.90
57132;DHT22;43005;52.922;5.742;2022-08-21T00:37:25;17.10;99.90
57132;DHT22;43005;52.922;5.742;2022-08-21T00:39:52;17.10;99.90
57132;DHT22;43005;52.922;5.742;2022-08-21T00:42:18;17.10;99.90
57132;DHT22;43005;52.922;5.742;2022-08-21T00:44:46;17.00;99.90
57132;DHT22;43005;52.922;5.742;2022-08-21T00:47:15;17.00;99.90
57132;DHT22;43005;52.922;5.742;2022-08-21T00:49:42;17.00;99.90
57132;DHT22;43005;52.922;5.742;2022-08-21T00:52:09;17.10;99.90
57132;DHT22;43005;52.922;5.742;2022-08-21T00:54:39;17.10;99.90
57132;DHT22;43005;52.922;5.742;2022-08-21T00:57:07;17.10;99.90
57132;DHT22;43005;52.922;5.742;2022-08-21T00:59:36;17.10;99.90
57132;DHT22;43005;52.922;5.742;2022-08-21T01:02:03;17.10;99.90
57132;DHT22;43005;52.922;5.742;2022-08-21T01:04:30;17.10;99.90
57132;DHT22;43005;52.922;5.742;2022-08-21T01:06:57;17.10;99.90
57132;DHT22;43005;52.922;5.742;2022-08-21T01:09:24;17.00;99.90
57132;DHT22;43005;52.922;5.742;2022-08-21T01:11:52;17.00;99.90
57132;DHT22;43005;52.922;5.742;2022-08-21T01:14:19;17.00;99.90
57132;DHT22;43005;52.922;5.742;2022-08-21T01:16:47;17.00;99.90
57132;DHT22;43005;52.922;5.742;2022-08-21T01:19:14;17.00;99.90
57132;DHT22;43005;52.922;5.742;2022-08-21T01:21:43;17.00;99.90
57132;DHT22;43005;52.922;5.742;2022-08-21T01:24:10;17.00;99.90
57132;DHT22;43005;52.922;5.742;2022-08-21T01:26:37;17.00;99.90
57132;DHT22;43005;52.922;5.742;2022-08-21T01:29:05;17.00;99.90
57132;DHT22;43005;52.922;5.742;2022-08-21T01:31:32;17.00;99.90
57132;DHT22;43005;52.922;5.742;2022-08-21T01:33:59;17.00;99.90
57132;DHT22;43005;52.922;5.742;2022-08-21T01:36:26;17.00;99.90
57132;DHT22;43005;52.922;5.742;2022-08-21T01:38:54;17.00;99.90
57132;DHT22;43005;52.922;5.742;2022-08-21T01:41:21;17.00;99.90
57132;DHT22;43005;52.922;5.742;2022-08-21T01:43:48;17.00;99.90
57132;DHT22;43005;52.922;5.742;2022-08-21T01:46:15;17.00;99.90
57132;DHT22;43005;52.922;5.742;2022-08-21T01:48:42;17.10;99.90
57132;DHT22;43005;52.922;5.742;2022-08-21T01:51:09;17.00;99.90
57132;DHT22;43005;52.922;5.742;2022-08-21T01:53:35;17.00;99.90
57132;DHT22;43005;52.922;5.742;2022-08-21T01:56:05;17.00;99.90
57132;DHT22;43005;52.922;5.742;2022-08-21T01:58:32;17.00;99.90
57132;DHT22;43005;52.922;5.742;2022-08-21T02:00:59;17.00;99.90
57132;DHT22;43005;52.922;5.742;2022-08-21T02:03:26;17.00;99.90
57132;DHT22;43005;52.922;5.742;2022-08-21T02:05:53;17.00;99.90
57132;DHT22;43005;52.922;5.742;2022-08-21T02:08:20;17.00;99.90
57132;DHT22;43005;52.922;5.742;2022-08-21T02:10:48;17.10;99.90
57132;DHT22;43005;52.922;5.742;2022-08-21T02:13:17;17.10;99.90
57132;DHT22;43005;52.922;5.742;2022-08-21T02:15:44;17.10;99.90
57132;DHT22;43005;52.922;5.742;2022-08-21T02:18:11;17.10;99.90
57132;DHT22;43005;52.922;5.742;2022-08-21T02:20:39;17.00;99.90
57132;DHT22;43005;52.922;5.742;2022-08-21T02:23:06;17.00;99.90
57132;DHT22;43005;52.922;5.742;2022-08-21T02:25:34;17.00;99.90
57132;DHT22;43005;52.922;5.742;2022-08-21T02:28:02;17.00;99.90
57132;DHT22;43005;52.922;5.742;2022-08-21T02:30:33;16.90;99.90
57132;DHT22;43005;52.922;5.742;2022-08-21T02:33:00;16.90;99.90
57132;DHT22;43005;52.922;5.742;2022-08-21T02:35:27;16.90;99.90
57132;DHT22;43005;52.922;5.742;2022-08-21T02:37:55;16.90;99.90
57132;DHT22;43005;52.922;5.742;2022-08-21T02:40:24;16.90;99.90
57132;DHT22;43005;52.922;5.742;2022-08-21T02:42:51;16.90;99.90
57132;DHT22;43005;52.922;5.742;2022-08-21T02:45:18;16.90;99.90
57132;DHT22;43005;52.922;5.742;2022-08-21T02:47:48;16.90;99.90
57132;DHT22;43005;52.922;5.742;2022-08-21T02:50:17;16.80;99.90
57132;DHT22;43005;52.922;5.742;2022-08-21T02:52:44;16.80;99.90
57132;DHT22;43005;52.922;5.742;2022-08-21T02:55:11;16.80;99.90
57132;DHT22;43005;52.922;5.742;2022-08-21T02:57:38;16.80;99.90
57132;DHT22;43005;52.922;5.742;2022-08-21T03:00:05;16.70;99.90
57132;DHT22;43005;52.922;5.742;2022-08-21T03:02:33;16.70;99.90
57132;DHT22;43005;52.922;5.742;2022-08-21T03:05:01;16.60;99.90
57132;DHT22;43005;52.922;5.742;2022-08-21T03:07:28;16.60;99.90
57132;DHT22;43005;52.922;5.742;2022-08-21T03:09:55;16.50;99.90
57132;DHT22;43005;52.922;5.742;2022-08-21T03:12:22;16.50;99.90
57132;DHT22;43005;52.922;5.742;2022-08-21T03:14:49;16.50;99.90
57132;DHT22;43005;52.922;5.742;2022-08-21T03:17:15;16.50;99.90
57132;DHT22;43005;52.922;5.742;2022-08-21T03:19:42;16.50;99.90
57132;DHT22;43005;52.922;5.742;2022-08-21T03:22:10;16.50;99.90
57132;DHT22;43005;52.922;5.742;2022-08-21T03:24:37;16.60;99.90
57132;DHT22;43005;52.922;5.742;2022-08-21T03:27:04;16.60;99.90
57132;DHT22;43005;52.922;5.742;2022-08-21T03:29:30;16.60;99.90
57132;DHT22;43005;52.922;5.742;2022-08-21T03:31:57;16.70;99.90
57132;DHT22;43005;52.922;5.742;2022-08-21T03:34:24;16.70;99.90
57132;DHT22;43005;52.922;5.742;2022-08-21T03:36:51;16.80;99.90
57132;DHT22;43005;52.922;5.742;2022-08-21T03:39:19;16.80;99.90
57132;DHT22;43005;52.922;5.742;2022-08-21T03:41:45;16.80;99.90
57132;DHT22;43005;52.922;5.742;2022-08-21T03:44:12;16.80;99.90
57132;DHT22;43005;52.922;5.742;2022-08-21T03:46:39;16.80;99.90
57132;DHT22;43005;52.922;5.742;2022-08-21T03:49:06;16.80;99.90
57132;DHT22;43005;52.922;5.742;2022-08-21T03:51:32;16.80;99.90
57132;DHT22;43005;52.922;5.742;2022-08-21T03:54:01;16.80;99.90
57132;DHT22;43005;52.922;5.742;2022-08-21T03:56:29;16.70;99.90
57132;DHT22;43005;52.922;5.742;2022-08-21T03:58:55;16.70;99.90
57132;DHT22;43005;52.922;5.742;2022-08-21T04:01:22;16.70;99.90
57132;DHT22;43005;52.922;5.742;2022-08-21T04:03:49;16.70;99.90
57132;DHT22;43005;52.922;5.742;2022-08-21T04:06:15;16.70;99.90
57132;DHT22;43005;52.922;5.742;2022-08-21T04:08:43;16.70;99.90
57132;DHT22;43005;52.922;5.742;2022-08-21T04:11:09;16.70;99.90
57132;DHT22;43005;52.922;5.742;2022-08-21T04:13:38;16.70;99.90
57132;DHT22;43005;52.922;5.742;2022-08-21T04:16:05;16.70;99.90
57132;DHT22;43005;52.922;5.742;2022-08-21T04:18:32;16.70;99.90
57132;DHT22;43005;52.922;5.742;2022-08-21T04:20:59;16.60;99.90
57132;DHT22;43005;52.922;5.742;2022-08-21T04:23:26;16.60;99.90
57132;DHT22;43005;52.922;5.742;2022-08-21T04:25:53;16.60;99.90
57132;DHT22;43005;52.922;5.742;2022-08-21T04:28:20;16.60;99.90
57132;DHT22;43005;52.922;5.742;2022-08-21T04:30:48;16.50;99.90
57132;DHT22;43005;52.922;5.742;2022-08-21T04:33:15;16.50;99.90
57132;DHT22;43005;52.922;5.742;2022-08-21T04:35:42;16.50;99.90
57132;DHT22;43005;52.922;5.742;2022-08-21T04:38:09;16.50;99.90
57132;DHT22;43005;52.922;5.742;2022-08-21T04:40:36;16.50;99.90
57132;DHT22;43005;52.922;5.742;2022-08-21T04:43:03;16.40;99.90
57132;DHT22;43005;52.922;5.742;2022-08-21T04:45:31;16.50;99.90
57132;DHT22;43005;52.922;5.742;2022-08-21T04:48:00;16.50;99.90
57132;DHT22;43005;52.922;5.742;2022-08-21T04:50:29;16.50;99.90
57132;DHT22;43005;52.922;5.742;2022-08-21T04:52:57;16.50;99.90
57132;DHT22;43005;52.922;5.742;2022-08-21T04:55:24;16.50;99.90
57132;DHT22;43005;52.922;5.742;2022-08-21T04:57:52;16.50;99.90
57132;DHT22;43005;52.922;5.742;2022-08-21T05:00:20;16.50;99.90
57132;DHT22;43005;52.922;5.742;2022-08-21T05:02:48;16.60;99.90
57132;DHT22;43005;52.922;5.742;2022-08-21T05:05:19;16.60;99.90
57132;DHT22;43005;52.922;5.742;2022-08-21T05:07:45;16.60;99.90
57132;DHT22;43005;52.922;5.742;2022-08-21T05:10:13;16.60;99.90
57132;DHT22;43005;52.922;5.742;2022-08-21T05:12:40;16.70;99.90
57132;DHT22;43005;52.922;5.742;2022-08-21T05:15:08;16.70;99.90
57132;DHT22;43005;52.922;5.742;2022-08-21T05:17:37;16.70;99.90
57132;DHT22;43005;52.922;5.742;2022-08-21T05:20:04;16.70;99.90
57132;DHT22;43005;52.922;5.742;2022-08-21T05:22:32;16.70;99.90
57132;DHT22;43005;52.922;5.742;2022-08-21T05:24:58;16.80;99.90
57132;DHT22;43005;52.922;5.742;2022-08-21T05:27:25;16.80;99.90
57132;DHT22;43005;52.922;5.742;2022-08-21T05:29:54;16.80;99.90
57132;DHT22;43005;52.922;5.742;2022-08-21T05:32:21;16.90;99.90
57132;DHT22;43005;52.922;5.742;2022-08-21T05:34:48;16.90;99.90
57132;DHT22;43005;52.922;5.742;2022-08-21T05:37:15;17.00;99.90
57132;DHT22;43005;52.922;5.742;2022-08-21T05:39:43;17.00;99.90
57132;DHT22;43005;52.922;5.742;2022-08-21T05:42:09;17.10;99.90
57132;DHT22;43005;52.922;5.742;2022-08-21T05:44:36;17.10;99.90
57132;DHT22;43005;52.922;5.742;2022-08-21T05:47:04;17.20;99.90
57132;DHT22;43005;52.922;5.742;2022-08-21T05:49:31;17.30;99.90
57132;DHT22;43005;52.922;5.742;2022-08-21T05:51:57;17.40;99.90
57132;DHT22;43005;52.922;5.742;2022-08-21T05:54:24;17.50;99.90
57132;DHT22;43005;52.922;5.742;2022-08-21T05:56:52;17.60;99.90
57132;DHT22;43005;52.922;5.742;2022-08-21T05:59:19;17.80;99.90
57132;DHT22;43005;52.922;5.742;2022-08-21T06:01:45;18.00;99.90
57132;DHT22;43005;52.922;5.742;2022-08-21T06:04:12;18.10;99.90
57132;DHT22;43005;52.922;5.742;2022-08-21T06:06:39;18.30;99.90
57132;DHT22;43005;52.922;5.742;2022-08-21T06:09:05;18.50;99.90
57132;DHT22;43005;52.922;5.742;2022-08-21T06:11:33;18.70;99.90
57132;DHT22;43005;52.922;5.742;2022-08-21T06:14:01;18.90;99.90
57132;DHT22;43005;52.922;5.742;2022-08-21T06:16:28;19.10;99.90
57132;DHT22;43005;52.922;5.742;2022-08-21T06:18:54;19.30;99.90
57132;DHT22;43005;52.922;5.742;2022-08-21T06:21:21;19.50;99.90
57132;DHT22;43005;52.922;5.742;2022-08-21T06:23:48;19.70;99.90
57132;DHT22;43005;52.922;5.742;2022-08-21T06:26:15;19.90;99.90
57132;DHT22;43005;52.922;5.742;2022-08-21T06:28:42;20.00;99.90
57132;DHT22;43005;52.922;5.742;2022-08-21T06:31:11;20.20;99.90
57132;DHT22;43005;52.922;5.742;2022-08-21T06:33:39;20.30;99.90
57132;DHT22;43005;52.922;5.742;2022-08-21T06:36:06;20.50;99.90
57132;DHT22;43005;52.922;5.742;2022-08-21T06:38:33;20.70;99.90
57132;DHT22;43005;52.922;5.742;2022-08-21T06:41:00;20.80;99.90
57132;DHT22;43005;52.922;5.742;2022-08-21T06:43:26;20.90;99.90
57132;DHT22;43005;52.922;5.742;2022-08-21T06:45:53;21.00;99.90
57132;DHT22;43005;52.922;5.742;2022-08-21T06:48:22;21.30;99.90
57132;DHT22;43005;52.922;5.742;2022-08-21T06:50:48;21.40;99.90
57132;DHT22;43005;52.922;5.742;2022-08-21T06:53:16;21.60;99.90
57132;DHT22;43005;52.922;5.742;2022-08-21T06:55:43;21.60;99.90
57132;DHT22;43005;52.922;5.742;2022-08-21T06:58:09;21.70;99.90
57132;DHT22;43005;52.922;5.742;2022-08-21T07:00:38;21.80;99.90
57132;DHT22;43005;52.922;5.742;2022-08-21T07:03:05;22.10;99.90
57132;DHT22;43005;52.922;5.742;2022-08-21T07:05:33;22.60;99.90
57132;DHT22;43005;52.922;5.742;2022-08-21T07:08:00;23.10;99.90
57132;DHT22;43005;52.922;5.742;2022-08-21T07:10:26;23.40;99.90
57132;DHT22;43005;52.922;5.742;2022-08-21T07:12:53;23.30;98.40
57132;DHT22;43005;52.922;5.742;2022-08-21T07:15:20;23.20;99.60
57132;DHT22;43005;52.922;5.742;2022-08-21T07:17:47;23.20;99.90
57132;DHT22;43005;52.922;5.742;2022-08-21T07:20:13;23.40;99.90
57132;DHT22;43005;52.922;5.742;2022-08-21T07:22:41;23.30;98.10
57132;DHT22;43005;52.922;5.742;2022-08-21T07:25:09;23.30;98.80
57132;DHT22;43005;52.922;5.742;2022-08-21T07:27:36;23.50;98.70
57132;DHT22;43005;52.922;5.742;2022-08-21T07:30:03;23.60;98.10
57132;DHT22;43005;52.922;5.742;2022-08-21T07:32:30;24.00;99.00
57132;DHT22;43005;52.922;5.742;2022-08-21T07:34:56;24.40;96.80
57132;DHT22;43005;52.922;5.742;2022-08-21T07:37:23;24.80;92.70
57132;DHT22;43005;52.922;5.742;2022-08-21T07:39:51;24.90;90.60
57132;DHT22;43005;52.922;5.742;2022-08-21T07:42:18;25.00;88.40
57132;DHT22;43005;52.922;5.742;2022-08-21T07:44:45;25.10;86.00
57132;DHT22;43005;52.922;5.742;2022-08-21T07:47:11;25.00;88.50
57132;DHT22;43005;52.922;5.742;2022-08-21T07:49:38;25.10;87.20
57132;DHT22;43005;52.922;5.742;2022-08-21T07:52:05;25.20;88.30
57132;DHT22;43005;52.922;5.742;2022-08-21T07:54:32;25.30;86.30
57132;DHT22;43005;52.922;5.742;2022-08-21T07:57:00;25.30;86.50
57132;DHT22;43005;52.922;5.742;2022-08-21T07:59:27;25.30;85.40
57132;DHT22;43005;52.922;5.742;2022-08-21T08:01:53;25.20;85.60
57132;DHT22;43005;52.922;5.742;2022-08-21T08:04:20;25.30;85.00
57132;DHT22;43005;52.922;5.742;2022-08-21T08:06:47;25.30;83.30
57132;DHT22;43005;52.922;5.742;2022-08-21T08:09:13;25.40;81.60
57132;DHT22;43005;52.922;5.742;2022-08-21T08:11:41;25.40;81.10
57132;DHT22;43005;52.922;5.742;2022-08-21T08:14:10;25.60;79.40
57132;DHT22;43005;52.922;5.742;2022-08-21T08:16:37;25.80;78.30
57132;DHT22;43005;52.922;5.742;2022-08-21T08:19:03;26.00;75.20
57132;DHT22;43005;52.922;5.742;2022-08-21T08:21:30;26.00;73.40
57132;DHT22;43005;52.922;5.742;2022-08-21T08:23:58;25.80;74.70
57132;DHT22;43005;52.922;5.742;2022-08-21T08:26:25;25.70;76.70
57132;DHT22;43005;52.922;5.742;2022-08-21T08:28:52;25.80;76.90
57132;DHT22;43005;52.922;5.742;2022-08-21T08:31:20;26.00;75.90
57132;DHT22;43005;52.922;5.742;2022-08-21T08:33:47;26.00;74.80
57132;DHT22;43005;52.922;5.742;2022-08-21T08:36:14;26.20;74.40
57132;DHT22;43005;52.922;5.742;2022-08-21T08:38:41;26.30;73.90
57132;DHT22;43005;52.922;5.742;2022-08-21T08:41:09;26.50;73.40
57132;DHT22;43005;52.922;5.742;2022-08-21T08:43:38;26.60;73.40
57132;DHT22;43005;52.922;5.742;2022-08-21T08:46:06;26.70;71.90
57132;DHT22;43005;52.922;5.742;2022-08-21T08:48:41;26.70;71.70
57132;DHT22;43005;52.922;5.742;2022-08-21T08:51:12;26.80;70.70
57132;DHT22;43005;52.922;5.742;2022-08-21T08:53:44;26.90;70.10
57132;DHT22;43005;52.922;5.742;2022-08-21T08:56:12;26.90;70.30
57132;DHT22;43005;52.922;5.742;2022-08-21T08:58:41;27.20;69.60
57132;DHT22;43005;52.922;5.742;2022-08-21T09:01:10;27.50;69.10
57132;DHT22;43005;52.922;5.742;2022-08-21T09:03:40;27.40;67.10
57132;DHT22;43005;52.922;5.742;2022-08-21T09:06:12;27.30;68.60
57132;DHT22;43005;52.922;5.742;2022-08-21T09:08:46;27.50;67.70
57132;DHT22;43005;52.922;5.742;2022-08-21T09:11:20;27.40;66.50
57132;DHT22;43005;52.922;5.742;2022-08-21T09:13:50;27.20;67.10
57132;DHT22;43005;52.922;5.742;2022-08-21T09:16:24;27.10;67.30
57132;DHT22;43005;52.922;5.742;2022-08-21T09:18:58;27.10;66.40
57132;DHT22;43005;52.922;5.742;2022-08-21T09:21:27;27.30;65.40
57132;DHT22;43005;52.922;5.742;2022-08-21T09:23:57;27.50;65.70
57132;DHT22;43005;52.922;5.742;2022-08-21T09:26:27;27.60;65.30
57132;DHT22;43005;52.922;5.742;2022-08-21T09:28:57;27.60;65.10
57132;DHT22;43005;52.922;5.742;2022-08-21T09:31:26;27.60;64.70
57132;DHT22;43005;52.922;5.742;2022-08-21T09:33:58;27.80;65.00
57132;DHT22;43005;52.922;5.742;2022-08-21T09:36:30;27.90;62.80
57132;DHT22;43005;52.922;5.742;2022-08-21T09:38:57;28.00;63.20
57132;DHT22;43005;52.922;5.742;2022-08-21T09:41:28;28.30;62.60
57132;DHT22;43005;52.922;5.742;2022-08-21T09:43:56;28.40;60.60
57132;DHT22;43005;52.922;5.742;2022-08-21T09:46:24;28.60;60.90
57132;DHT22;43005;52.922;5.742;2022-08-21T09:48:52;28.90;60.20
57132;DHT22;43005;52.922;5.742;2022-08-21T09:51:21;29.10;59.60
57132;DHT22;43005;52.922;5.742;2022-08-21T09:53:49;29.10;58.60
57132;DHT22;43005;52.922;5.742;2022-08-21T09:56:25;29.10;58.80
57132;DHT22;43005;52.922;5.742;2022-08-21T09:59:14;29.10;58.70
57132;DHT22;43005;52.922;5.742;2022-08-21T10:01:43;29.20;59.30
57132;DHT22;43005;52.922;5.742;2022-08-21T10:04:10;29.30;58.10
57132;DHT22;43005;52.922;5.742;2022-08-21T10:06:38;29.40;57.70
57132;DHT22;43005;52.922;5.742;2022-08-21T10:09:05;29.40;57.00
57132;DHT22;43005;52.922;5.742;2022-08-21T10:11:33;29.50;57.30
57132;DHT22;43005;52.922;5.742;2022-08-21T10:14:03;29.70;56.70
57132;DHT22;43005;52.922;5.742;2022-08-21T10:16:34;29.50;56.00
57132;DHT22;43005;52.922;5.742;2022-08-21T10:19:11;29.60;57.70
57132;DHT22;43005;52.922;5.742;2022-08-21T10:21:44;29.80;55.30
57132;DHT22;43005;52.922;5.742;2022-08-21T10:24:18;29.90;54.40
57132;DHT22;43005;52.922;5.742;2022-08-21T10:26:50;29.80;55.10
57132;DHT22;43005;52.922;5.742;2022-08-21T10:29:26;29.70;55.00
57132;DHT22;43005;52.922;5.742;2022-08-21T10:31:59;29.70;55.90
57132;DHT22;43005;52.922;5.742;2022-08-21T10:34:32;29.80;55.40
57132;DHT22;43005;52.922;5.742;2022-08-21T10:37:07;30.00;55.20
57132;DHT22;43005;52.922;5.742;2022-08-21T10:39:39;30.30;54.70
57132;DHT22;43005;52.922;5.742;2022-08-21T10:42:17;30.40;54.30
57132;DHT22;43005;52.922;5.742;2022-08-21T10:44:49;30.30;54.00
57132;DHT22;43005;52.922;5.742;2022-08-21T10:47:23;30.10;53.10
57132;DHT22;43005;52.922;5.742;2022-08-21T10:49:52;29.80;53.70
57132;DHT22;43005;52.922;5.742;2022-08-21T10:52:27;29.50;54.60
57132;DHT22;43005;52.922;5.742;2022-08-21T10:54:59;29.20;55.20
57132;DHT22;43005;52.922;5.742;2022-08-21T10:57:27;28.80;54.90
57132;DHT22;43005;52.922;5.742;2022-08-21T10:59:57;28.30;56.00
57132;DHT22;43005;52.922;5.742;2022-08-21T11:02:25;27.90;58.20
57132;DHT22;43005;52.922;5.742;2022-08-21T11:04:55;27.60;58.40
57132;DHT22;43005;52.922;5.742;2022-08-21T11:07:28;27.70;57.40
57132;DHT22;43005;52.922;5.742;2022-08-21T11:09:58;28.20;57.60
57132;DHT22;43005;52.922;5.742;2022-08-21T11:12:28;28.70;56.30
57132;DHT22;43005;52.922;5.742;2022-08-21T11:14:58;28.90;55.60
57132;DHT22;43005;52.922;5.742;2022-08-21T11:17:28;28.80;53.30
57132;DHT22;43005;52.922;5.742;2022-08-21T11:19:59;29.10;55.00
57132;DHT22;43005;52.922;5.742;2022-08-21T11:22:28;29.20;54.90
57132;DHT22;43005;52.922;5.742;2022-08-21T11:25:01;29.20;54.10
57132;DHT22;43005;52.922;5.742;2022-08-21T11:27:33;28.90;53.00
57132;DHT22;43005;52.922;5.742;2022-08-21T11:30:03;28.70;53.80
57132;DHT22;43005;52.922;5.742;2022-08-21T11:32:34;28.60;53.20
57132;DHT22;43005;52.922;5.742;2022-08-21T11:35:03;28.20;53.80
57132;DHT22;43005;52.922;5.742;2022-08-21T11:37:40;28.00;55.00
57132;DHT22;43005;52.922;5.742;2022-08-21T11:40:10;27.80;54.80
57132;DHT22;43005;52.922;5.742;2022-08-21T11:42:42;27.60;55.00
57132;DHT22;43005;52.922;5.742;2022-08-21T11:45:22;27.60;54.90
57132;DHT22;43005;52.922;5.742;2022-08-21T11:47:54;27.40;55.10
57132;DHT22;43005;52.922;5.742;2022-08-21T11:50:23;27.20;57.20
57132;DHT22;43005;52.922;5.742;2022-08-21T11:52:54;26.90;58.00
57132;DHT22;43005;52.922;5.742;2022-08-21T11:55:30;26.80;80.60
57132;DHT22;43005;52.922;5.742;2022-08-21T11:57:58;25.60;99.90
57132;DHT22;43005;52.922;5.742;2022-08-21T12:00:26;24.70;99.90
57132;DHT22;43005;52.922;5.742;2022-08-21T12:02:56;23.90;99.90
57132;DHT22;43005;52.922;5.742;2022-08-21T12:05:29;23.30;99.90
57132;DHT22;43005;52.922;5.742;2022-08-21T12:08:03;22.80;99.90
57132;DHT22;43005;52.922;5.742;2022-08-21T12:10:31;22.70;99.90
57132;DHT22;43005;52.922;5.742;2022-08-21T12:13:05;22.50;99.90
57132;DHT22;43005;52.922;5.742;2022-08-21T12:15:35;22.50;99.90
57132;DHT22;43005;52.922;5.742;2022-08-21T12:18:03;22.30;99.90
57132;DHT22;43005;52.922;5.742;2022-08-21T12:20:38;22.30;99.90
57132;DHT22;43005;52.922;5.742;2022-08-21T12:23:17;22.40;99.90
57132;DHT22;43005;52.922;5.742;2022-08-21T12:25:47;22.60;99.90
57132;DHT22;43005;52.922;5.742;2022-08-21T12:28:15;22.70;99.90
57132;DHT22;43005;52.922;5.742;2022-08-21T12:30:43;22.70;99.90
57132;DHT22;43005;52.922;5.742;2022-08-21T12:33:21;22.80;99.90
57132;DHT22;43005;52.922;5.742;2022-08-21T12:35:50;22.70;99.90
57132;DHT22;43005;52.922;5.742;2022-08-21T12:38:20;22.70;99.90
57132;DHT22;43005;52.922;5.742;2022-08-21T12:40:48;22.70;99.90
57132;DHT22;43005;52.922;5.742;2022-08-21T12:43:18;22.80;99.90
57132;DHT22;43005;52.922;5.742;2022-08-21T12:45:47;22.70;99.90
57132;DHT22;43005;52.922;5.742;2022-08-21T12:53:27;22.90;99.90
57132;DHT22;43005;52.922;5.742;2022-08-21T12:55:56;23.20;99.90
57132;DHT22;43005;52.922;5.742;2022-08-21T12:58:27;23.70;99.90
57132;DHT22;43005;52.922;5.742;2022-08-21T13:00:56;23.70;99.90
57132;DHT22;43005;52.922;5.742;2022-08-21T13:03:23;23.70;99.90
57132;DHT22;43005;52.922;5.742;2022-08-21T13:05:50;24.00;99.90
57132;DHT22;43005;52.922;5.742;2022-08-21T13:08:19;24.30;99.90
57132;DHT22;43005;52.922;5.742;2022-08-21T13:10:48;24.40;99.90
57132;DHT22;43005;52.922;5.742;2022-08-21T13:13:17;24.40;99.90
57132;DHT22;43005;52.922;5.742;2022-08-21T13:15:46;24.60;95.30
57132;DHT22;43005;52.922;5.742;2022-08-21T13:18:19;24.80;95.20
57132;DHT22;43005;52.922;5.742;2022-08-21T13:20:48;25.00;91.00
57132;DHT22;43005;52.922;5.742;2022-08-21T13:23:19;25.10;82.10
57132;DHT22;43005;52.922;5.742;2022-08-21T13:25:48;25.10;84.80
57132;DHT22;43005;52.922;5.742;2022-08-21T13:28:15;25.50;95.90
57132;DHT22;43005;52.922;5.742;2022-08-21T13:30:43;25.90;82.30
57132;DHT22;43005;52.922;5.742;2022-08-21T13:33:10;26.40;76.50
57132;DHT22;43005;52.922;5.742;2022-08-21T13:35:45;27.00;73.80
57132;DHT22;43005;52.922;5.742;2022-08-21T13:38:13;27.30;77.10
57132;DHT22;43005;52.922;5.742;2022-08-21T13:40:44;27.50;67.80
57132;DHT22;43005;52.922;5.742;2022-08-21T13:43:12;27.90;68.70
57132;DHT22;43005;52.922;5.742;2022-08-21T13:45:42;28.20;68.20
57132;DHT22;43005;52.922;5.742;2022-08-21T13:48:10;28.50;64.80
57132;DHT22;43005;52.922;5.742;2022-08-21T13:50:39;28.90;63.20
57132;DHT22;43005;52.922;5.742;2022-08-21T13:53:18;29.10;62.40
57132;DHT22;43005;52.922;5.742;2022-08-21T13:55:46;29.20;61.30
57132;DHT22;43005;52.922;5.742;2022-08-21T13:58:22;29.40;58.10
57132;DHT22;43005;52.922;5.742;2022-08-21T14:00:49;29.60;57.90
57132;DHT22;43005;52.922;5.742;2022-08-21T14:03:25;29.90;57.70
57132;DHT22;43005;52.922;5.742;2022-08-21T14:05:53;30.30;55.40
57132;DHT22;43005;52.922;5.742;2022-08-21T14:08:22;30.50;51.80
57132;DHT22;43005;52.922;5.742;2022-08-21T14:10:51;30.60;52.90
57132;DHT22;43005;52.922;5.742;2022-08-21T14:13:24;30.60;53.80
57132;DHT22;43005;52.922;5.742;2022-08-21T14:15:54;31.00;53.60
57132;DHT22;43005;52.922;5.742;2022-08-21T14:18:21;31.30;54.40
57132;DHT22;43005;52.922;5.742;2022-08-21T14:21:02;31.50;51.90
57132;DHT22;43005;52.922;5.742;2022-08-21T14:23:29;31.50;49.30
57132;DHT22;43005;52.922;5.742;2022-08-21T14:25:58;31.40;49.40
57132;DHT22;43005;52.922;5.742;2022-08-21T14:28:27;31.30;48.80
57132;DHT22;43005;52.922;5.742;2022-08-21T14:30:55;31.50;50.40
57132;DHT22;43005;52.922;5.742;2022-08-21T14:33:23;31.50;50.80
57132;DHT22;43005;52.922;5.742;2022-08-21T14:35:51;31.40;49.30
57132;DHT22;43005;52.922;5.742;2022-08-21T14:38:19;31.40;49.00
57132;DHT22;43005;52.922;5.742;2022-08-21T14:40:48;31.00;49.30
57132;DHT22;43005;52.922;5.742;2022-08-21T14:43:16;30.70;47.90
57132;DHT22;43005;52.922;5.742;2022-08-21T14:45:44;30.30;49.20
57132;DHT22;43005;52.922;5.742;2022-08-21T14:48:11;30.10;49.40
57132;DHT22;43005;52.922;5.742;2022-08-21T14:50:38;30.20;50.10
57132;DHT22;43005;52.922;5.742;2022-08-21T14:53:06;30.60;49.60
57132;DHT22;43005;52.922;5.742;2022-08-21T14:55:32;31.10;48.30
57132;DHT22;43005;52.922;5.742;2022-08-21T14:58:20;31.30;46.30
57132;DHT22;43005;52.922;5.742;2022-08-21T15:00:49;31.00;46.40
57132;DHT22;43005;52.922;5.742;2022-08-21T15:03:17;30.70;47.10
57132;DHT22;43005;52.922;5.742;2022-08-21T15:05:44;30.40;46.20
57132;DHT22;43005;52.922;5.742;2022-08-21T15:08:10;29.80;46.30
57132;DHT22;43005;52.922;5.742;2022-08-21T15:10:37;29.30;47.00
57132;DHT22;43005;52.922;5.742;2022-08-21T15:13:04;28.80;48.40
57132;DHT22;43005;52.922;5.742;2022-08-21T15:15:32;28.40;48.20
57132;DHT22;43005;52.922;5.742;2022-08-21T15:18:09;28.00;49.70
57132;DHT22;43005;52.922;5.742;2022-08-21T15:20:37;27.70;50.30
57132;DHT22;43005;52.922;5.742;2022-08-21T15:23:04;27.40;51.40
57132;DHT22;43005;52.922;5.742;2022-08-21T15:25:31;27.10;51.40
57132;DHT22;43005;52.922;5.742;2022-08-21T15:27:57;26.80;52.60
57132;DHT22;43005;52.922;5.742;2022-08-21T15:30:24;26.70;53.90
57132;DHT22;43005;52.922;5.742;2022-08-21T15:32:51;26.60;54.20
57132;DHT22;43005;52.922;5.742;2022-08-21T15:35:19;26.40;53.70
57132;DHT22;43005;52.922;5.742;2022-08-21T15:37:46;26.20;54.10
57132;DHT22;43005;52.922;5.742;2022-08-21T15:40:19;26.10;54.40
57132;DHT22;43005;52.922;5.742;2022-08-21T15:42:46;26.00;55.20